createdAt,value
2023-05-22T00:00:14.176Z,19.36
2023-05-22T00:02:43.140Z,19.32
2023-05-22T00:05:11.879Z,19.31
2023-05-22T00:07:39.259Z,19.32
2023-05-22T00:10:06.949Z,19.34
2023-05-22T00:12:33.379Z,19.35
2023-05-22T00:15:00.234Z,19.31
2023-05-22T00:17:27.119Z,19.25
2023-05-22T00:19:53.996Z,19.30
2023-05-22T00:22:20.957Z,19.33
2023-05-22T00:24:47.426Z,19.18
2023-05-22T00:27:13.904Z,19.10
2023-05-22T00:29:40.327Z,19.09
2023-05-22T00:32:07.115Z,19.05
2023-05-22T00:34:33.556Z,19.06
2023-05-22T00:37:00.144Z,19.13
2023-05-22T00:39:26.672Z,19.07
2023-05-22T00:41:53.066Z,18.96
2023-05-22T00:44:19.490Z,18.88
2023-05-22T00:46:46.097Z,18.80
2023-05-22T00:49:12.576Z,18.69
2023-05-22T00:51:39.080Z,18.64
2023-05-22T00:54:06.225Z,18.63
2023-05-22T00:56:33.529Z,18.66
2023-05-22T00:59:00.326Z,18.68
2023-05-22T01:01:33.361Z,18.74
2023-05-22T01:04:01.810Z,18.78
2023-05-22T01:06:28.511Z,18.78
2023-05-22T01:08:55.030Z,18.74
2023-05-22T01:11:28.269Z,18.71
2023-05-22T01:14:13.317Z,18.63
2023-05-22T01:16:59.598Z,18.57
2023-05-22T01:20:01.320Z,18.57
2023-05-22T01:22:58.656Z,18.51
2023-05-22T01:25:28.013Z,18.46
2023-05-22T01:28:22.402Z,18.49
2023-05-22T01:30:58.951Z,18.51
2023-05-22T01:33:28.861Z,18.51
2023-05-22T01:35:59.664Z,18.52
2023-05-22T01:38:26.569Z,18.50
2023-05-22T01:40:53.958Z,18.53
2023-05-22T01:43:20.396Z,18.56
2023-05-22T01:45:46.928Z,18.58
2023-05-22T01:48:13.490Z,18.58
2023-05-22T01:50:40.907Z,18.54
2023-05-22T01:53:40.043Z,18.54
2023-05-22T01:56:12.229Z,18.52
2023-05-22T01:58:56.568Z,18.47
2023-05-22T02:01:27.174Z,18.50
2023-05-22T02:03:57.340Z,18.48
2023-05-22T02:06:28.157Z,18.43
2023-05-22T02:08:54.984Z,18.38
2023-05-22T02:11:24.388Z,18.34
2023-05-22T02:13:51.725Z,18.31
2023-05-22T02:16:19.276Z,18.31
2023-05-22T02:18:46.650Z,18.34
2023-05-22T02:21:13.021Z,18.25
2023-05-22T02:23:40.035Z,18.15
2023-05-22T02:26:06.691Z,18.15
2023-05-22T02:28:33.242Z,18.18
2023-05-22T02:30:59.787Z,18.15
2023-05-22T02:33:27.047Z,18.17
2023-05-22T02:35:53.454Z,18.17
2023-05-22T02:38:20.345Z,18.13
2023-05-22T02:40:47.109Z,18.10
2023-05-22T02:43:13.527Z,18.07
2023-05-22T02:45:39.920Z,18.05
2023-05-22T02:48:06.487Z,18.01
2023-05-22T02:50:32.906Z,17.99
2023-05-22T02:52:59.332Z,18.01
2023-05-22T02:55:25.901Z,18.00
2023-05-22T02:57:52.317Z,17.90
2023-05-22T03:00:19.562Z,17.80
2023-05-22T03:02:46.045Z,17.70
2023-05-22T03:05:17.660Z,17.67
2023-05-22T03:07:48.044Z,17.66
2023-05-22T03:10:15.200Z,17.59
2023-05-22T03:12:41.545Z,17.58
2023-05-22T03:15:08.480Z,17.57
2023-05-22T03:17:34.990Z,17.58
2023-05-22T03:20:01.551Z,17.48
2023-05-22T03:22:27.997Z,17.40
2023-05-22T03:24:54.460Z,17.32
2023-05-22T03:27:21.257Z,17.36
2023-05-22T03:29:47.677Z,17.40
2023-05-22T03:32:14.196Z,17.40
2023-05-22T03:34:41.042Z,17.36
2023-05-22T03:37:08.944Z,17.27
2023-05-22T03:39:36.022Z,17.28
2023-05-22T03:42:02.481Z,17.19
2023-05-22T03:44:28.944Z,17.16
2023-05-22T03:46:55.660Z,17.17
2023-05-22T03:49:22.005Z,17.19
2023-05-22T03:51:48.421Z,17.16
2023-05-22T03:54:15.064Z,17.14
2023-05-22T03:56:41.483Z,17.15
2023-05-22T03:59:07.865Z,17.09
2023-05-22T04:01:34.577Z,17.05
2023-05-22T04:04:01.946Z,17.04
2023-05-22T04:06:28.334Z,17.06
2023-05-22T04:08:54.762Z,17.04
2023-05-22T04:11:22.079Z,17.01
2023-05-22T04:13:50.125Z,17.08
2023-05-22T04:16:17.651Z,17.06
2023-05-22T04:18:44.380Z,17.04
2023-05-22T04:21:10.821Z,17.02
2023-05-22T04:23:38.621Z,16.95
2023-05-22T04:26:06.146Z,16.98
2023-05-22T04:28:32.851Z,17.00
2023-05-22T04:30:59.530Z,17.01
2023-05-22T04:33:26.115Z,17.05
2023-05-22T04:35:52.503Z,17.07
2023-05-22T04:38:19.071Z,17.07
2023-05-22T04:40:45.544Z,17.12
2023-05-22T04:43:12.565Z,17.12
2023-05-22T04:45:39.358Z,17.17
2023-05-22T04:48:06.282Z,17.18
2023-05-22T04:50:32.846Z,17.08
2023-05-22T04:52:59.910Z,16.93
2023-05-22T04:55:26.341Z,16.99
2023-05-22T04:57:52.747Z,17.01
2023-05-22T05:00:19.861Z,17.11
2023-05-22T05:02:46.327Z,17.08
2023-05-22T05:05:12.785Z,17.12
2023-05-22T05:07:39.973Z,17.17
2023-05-22T05:10:07.374Z,17.25
2023-05-22T05:12:34.014Z,17.30
2023-05-22T05:15:00.635Z,17.33
2023-05-22T05:17:27.037Z,17.34
2023-05-22T05:19:53.660Z,17.31
2023-05-22T05:22:20.053Z,17.34
2023-05-22T05:24:46.726Z,17.41
2023-05-22T05:27:13.838Z,17.48
2023-05-22T05:29:41.296Z,17.53
2023-05-22T05:32:08.206Z,17.59
2023-05-22T05:34:35.012Z,17.61
2023-05-22T05:37:02.923Z,17.70
2023-05-22T05:39:29.627Z,17.81
2023-05-22T05:41:56.172Z,17.91
2023-05-22T05:44:22.602Z,17.94
2023-05-22T05:46:49.010Z,18.00
2023-05-22T05:49:15.453Z,18.08
2023-05-22T05:51:41.852Z,18.12
2023-05-22T05:54:08.218Z,18.18
2023-05-22T05:56:34.582Z,18.15
2023-05-22T05:59:01.110Z,18.20
2023-05-22T06:01:27.688Z,18.30
2023-05-22T06:03:54.235Z,18.34
2023-05-22T06:06:20.848Z,18.38
2023-05-22T06:08:47.239Z,18.42
2023-05-22T06:11:13.659Z,18.46
2023-05-22T06:13:40.059Z,18.43
2023-05-22T06:16:07.073Z,18.38
2023-05-22T06:18:33.547Z,18.38
2023-05-22T06:21:00.108Z,18.46
2023-05-22T06:23:26.667Z,18.50
2023-05-22T06:25:53.894Z,18.46
2023-05-22T06:28:20.342Z,18.46
2023-05-22T06:30:47.047Z,18.45
2023-05-22T06:33:14.426Z,18.47
2023-05-22T06:35:41.049Z,18.57
2023-05-22T06:38:07.831Z,18.61
2023-05-22T06:40:34.228Z,18.61
2023-05-22T06:43:01.601Z,18.53
2023-05-22T06:45:28.049Z,18.51
2023-05-22T06:47:54.816Z,18.58
2023-05-22T06:50:22.109Z,18.55
2023-05-22T06:52:49.165Z,18.55
2023-05-22T06:55:15.710Z,18.55
2023-05-22T06:57:42.168Z,18.49
2023-05-22T07:00:11.592Z,18.46
2023-05-22T07:02:38.365Z,18.47
2023-05-22T07:05:05.230Z,18.50
2023-05-22T07:07:31.595Z,18.36
2023-05-22T07:09:58.116Z,18.38
2023-05-22T07:12:26.251Z,18.46
2023-05-22T07:14:53.210Z,18.51
2023-05-22T07:17:21.665Z,18.37
2023-05-22T07:19:48.902Z,18.34
2023-05-22T07:22:15.587Z,18.34
2023-05-22T07:24:42.099Z,18.32
2023-05-22T07:27:09.292Z,18.37
2023-05-22T07:29:36.249Z,18.43
2023-05-22T07:32:02.721Z,18.51
2023-05-22T07:34:33.139Z,18.58
2023-05-22T07:37:07.999Z,18.56
2023-05-22T07:39:34.481Z,18.55
2023-05-22T07:42:01.829Z,18.62
2023-05-22T07:44:28.678Z,18.51
2023-05-22T07:46:55.742Z,18.49
2023-05-22T07:49:23.565Z,18.58
2023-05-22T07:51:50.020Z,18.61
2023-05-22T07:54:18.159Z,18.63
2023-05-22T07:56:45.895Z,18.67
2023-05-22T07:59:12.543Z,18.74
2023-05-22T08:01:40.339Z,18.73
2023-05-22T08:04:06.963Z,18.80
2023-05-22T08:06:36.756Z,18.81
2023-05-22T08:09:04.760Z,18.90
2023-05-22T08:11:31.190Z,18.84
2023-05-22T08:13:57.578Z,18.87
2023-05-22T08:16:24.065Z,18.86
2023-05-22T08:18:51.143Z,18.85
2023-05-22T08:21:18.654Z,18.87
2023-05-22T08:23:45.194Z,18.87
2023-05-22T08:26:11.861Z,18.92
2023-05-22T08:28:41.927Z,18.85
2023-05-22T08:31:08.374Z,18.82
2023-05-22T08:33:34.780Z,18.89
2023-05-22T08:36:01.273Z,18.86
2023-05-22T08:38:27.809Z,18.92
2023-05-22T08:40:57.135Z,18.92
2023-05-22T08:43:24.083Z,18.93
2023-05-22T08:45:59.625Z,18.93
2023-05-22T08:48:30.695Z,18.93
2023-05-22T08:51:01.383Z,18.88
2023-05-22T08:53:29.217Z,18.93
2023-05-22T08:55:56.188Z,18.97
2023-05-22T08:58:23.175Z,19.05
2023-05-22T09:00:49.594Z,19.09
2023-05-22T09:03:16.380Z,19.12
2023-05-22T09:05:45.313Z,19.11
2023-05-22T09:08:19.697Z,19.18
2023-05-22T09:10:47.299Z,19.24
2023-05-22T09:13:26.255Z,19.28
2023-05-22T09:15:53.078Z,19.29
2023-05-22T09:18:20.401Z,19.31
2023-05-22T09:20:47.002Z,19.32
2023-05-22T09:23:15.639Z,19.32
2023-05-22T09:25:43.134Z,19.28
2023-05-22T09:28:11.412Z,19.26
2023-05-22T09:30:38.220Z,19.26
2023-05-22T09:33:07.140Z,19.24
2023-05-22T09:35:35.641Z,19.26
2023-05-22T09:38:02.100Z,19.24
2023-05-22T09:40:29.307Z,19.32
2023-05-22T09:42:55.732Z,19.28
2023-05-22T09:45:26.554Z,19.34
2023-05-22T09:47:53.093Z,19.33
2023-05-22T09:50:19.666Z,19.32
2023-05-22T09:52:47.636Z,19.42
2023-05-22T09:55:14.525Z,19.49
2023-05-22T09:57:45.399Z,19.56
2023-05-22T10:00:15.121Z,19.55
2023-05-22T10:02:46.833Z,19.57
2023-05-22T10:05:23.930Z,19.54
2023-05-22T10:07:53.191Z,19.49
2023-05-22T10:10:22.914Z,19.50
2023-05-22T10:13:03.279Z,19.54
2023-05-22T10:15:30.981Z,19.56
2023-05-22T10:17:58.201Z,19.47
2023-05-22T10:20:26.858Z,19.47
2023-05-22T10:22:54.853Z,19.52
2023-05-22T10:25:22.267Z,19.49
2023-05-22T10:27:55.022Z,19.58
2023-05-22T10:30:30.749Z,19.59
2023-05-22T10:33:21.314Z,19.53
2023-05-22T10:36:08.624Z,19.49
2023-05-22T10:39:12.265Z,19.54
2023-05-22T10:41:39.953Z,19.62
2023-05-22T10:44:06.792Z,19.66
2023-05-22T10:46:36.404Z,19.67
2023-05-22T10:49:02.987Z,19.73
2023-05-22T10:51:29.690Z,19.77
2023-05-22T10:54:02.176Z,19.86
2023-05-22T10:56:36.011Z,19.88
2023-05-22T11:02:01.062Z,19.97
2023-05-22T11:02:20.505Z,19.91
2023-05-22T11:04:27.623Z,20.00
2023-05-22T11:07:05.212Z,20.06
2023-05-22T11:09:45.704Z,20.10
2023-05-22T11:12:12.050Z,20.14
2023-05-22T11:14:38.722Z,20.17
2023-05-22T11:17:08.315Z,20.27
2023-05-22T11:19:34.968Z,20.32
2023-05-22T11:22:03.455Z,20.34
2023-05-22T11:24:36.866Z,20.34
2023-05-22T11:27:07.268Z,20.48
2023-05-22T11:29:34.041Z,20.54
2023-05-22T11:32:02.062Z,20.58
2023-05-22T11:34:28.938Z,20.62
2023-05-22T11:36:59.768Z,20.66
2023-05-22T11:39:26.826Z,20.65
2023-05-22T11:41:53.379Z,20.66
2023-05-22T11:44:20.055Z,20.69
2023-05-22T11:46:46.640Z,20.75
2023-05-22T11:49:13.318Z,20.71
2023-05-22T11:51:40.693Z,20.73
2023-05-22T11:54:07.761Z,20.73
2023-05-22T11:56:34.172Z,20.76
2023-05-22T11:59:00.613Z,20.83
2023-05-22T12:01:27.015Z,20.94
2023-05-22T12:03:54.319Z,21.01
2023-05-22T12:06:21.111Z,21.11
2023-05-22T12:08:47.900Z,21.13
2023-05-22T12:11:14.439Z,21.17
2023-05-22T12:13:41.293Z,21.23
2023-05-22T12:16:22.740Z,21.23
2023-05-22T12:18:53.321Z,21.36
2023-05-22T12:21:20.899Z,21.46
2023-05-22T12:23:50.122Z,21.61
2023-05-22T12:26:17.120Z,21.66
2023-05-22T12:28:44.059Z,21.59
2023-05-22T12:31:10.538Z,21.68
2023-05-22T12:33:39.699Z,21.67
2023-05-22T12:36:10.305Z,21.74
2023-05-22T12:38:38.273Z,21.86
2023-05-22T12:41:04.989Z,21.93
2023-05-22T12:43:31.384Z,21.94
2023-05-22T12:45:58.907Z,21.93
2023-05-22T12:48:26.416Z,21.97
2023-05-22T12:50:53.417Z,22.09
2023-05-22T12:53:19.931Z,22.17
2023-05-22T12:55:46.529Z,22.23
2023-05-22T12:58:13.013Z,22.28
2023-05-22T13:00:39.714Z,22.31
2023-05-22T13:03:06.673Z,22.22
2023-05-22T13:05:33.175Z,22.28
2023-05-22T13:07:59.768Z,22.38
2023-05-22T13:10:26.189Z,22.45
2023-05-22T13:12:52.661Z,22.41
2023-05-22T13:15:19.078Z,22.54
2023-05-22T13:17:45.972Z,22.63
2023-05-22T13:20:13.660Z,22.62
2023-05-22T13:22:41.729Z,22.69
2023-05-22T13:25:08.551Z,22.82
2023-05-22T13:27:35.165Z,22.95
2023-05-22T13:30:01.936Z,23.04
2023-05-22T13:32:28.407Z,23.15
2023-05-22T13:34:54.891Z,23.22
2023-05-22T13:37:21.471Z,23.06
2023-05-22T13:39:47.952Z,22.96
2023-05-22T13:42:14.608Z,22.93
2023-05-22T13:44:41.046Z,23.04
2023-05-22T13:47:07.643Z,23.06
2023-05-22T13:49:34.390Z,23.11
2023-05-22T13:52:00.871Z,23.17
2023-05-22T13:54:27.659Z,23.30
2023-05-22T13:56:54.163Z,23.34
2023-05-22T13:59:20.613Z,23.34
2023-05-22T14:01:46.969Z,23.38
2023-05-22T14:04:13.440Z,23.37
2023-05-22T14:06:39.847Z,23.40
2023-05-22T14:09:07.914Z,23.32
2023-05-22T14:11:34.518Z,23.33
2023-05-22T14:14:00.972Z,23.29
2023-05-22T14:16:27.557Z,23.36
2023-05-22T14:18:54.071Z,23.43
2023-05-22T14:21:20.593Z,23.52
2023-05-22T14:23:47.071Z,23.58
2023-05-22T14:26:14.449Z,23.59
2023-05-22T14:28:41.584Z,23.65
2023-05-22T14:31:08.061Z,23.71
2023-05-22T14:33:35.743Z,23.70
2023-05-22T14:36:02.473Z,23.79
2023-05-22T14:38:34.839Z,23.78
2023-05-22T14:41:01.707Z,23.79
2023-05-22T14:43:28.384Z,23.78
2023-05-22T14:45:56.204Z,23.68
2023-05-22T14:48:26.471Z,23.55
2023-05-22T14:50:56.303Z,23.61
2023-05-22T14:53:23.216Z,23.75
2023-05-22T14:55:49.759Z,23.79
2023-05-22T14:58:16.331Z,23.86
2023-05-22T15:00:42.799Z,23.86
2023-05-22T15:03:09.508Z,23.84
2023-05-22T15:05:36.047Z,23.82
2023-05-22T15:08:02.545Z,23.82
2023-05-22T15:10:29.057Z,23.85
2023-05-22T15:12:55.431Z,23.79
2023-05-22T15:15:21.944Z,23.82
2023-05-22T15:17:48.449Z,23.86
2023-05-22T15:20:15.033Z,23.86
2023-05-22T15:22:41.482Z,23.85
2023-05-22T15:25:11.489Z,23.85
2023-05-22T15:27:39.267Z,23.87
2023-05-22T15:30:06.651Z,23.91
2023-05-22T15:32:33.361Z,23.96
2023-05-22T15:35:00.007Z,23.94
2023-05-22T15:37:27.309Z,23.96
2023-05-22T15:39:54.222Z,23.93
2023-05-22T15:42:20.715Z,23.95
2023-05-22T15:44:47.261Z,23.89
2023-05-22T15:47:13.733Z,23.87
2023-05-22T15:49:40.100Z,23.83
2023-05-22T15:52:06.494Z,23.86
2023-05-22T15:54:33.134Z,23.87
2023-05-22T15:56:59.530Z,23.88
2023-05-22T15:59:25.951Z,23.85
2023-05-22T16:01:52.375Z,23.87
2023-05-22T16:04:18.788Z,23.88
2023-05-22T16:06:45.173Z,23.86
2023-05-22T16:09:11.654Z,23.93
2023-05-22T16:11:38.141Z,23.94
2023-05-22T16:14:04.809Z,23.79
2023-05-22T16:16:31.453Z,23.75
2023-05-22T16:18:58.212Z,23.84
2023-05-22T16:21:24.791Z,23.78
2023-05-22T16:23:51.285Z,23.80
2023-05-22T16:26:17.765Z,23.70
2023-05-22T16:28:44.199Z,23.60
2023-05-22T16:31:10.684Z,23.55
2023-05-22T16:33:37.590Z,23.54
2023-05-22T16:36:04.452Z,23.53
2023-05-22T16:38:31.272Z,23.55
2023-05-22T16:40:58.001Z,23.53
2023-05-22T16:43:24.494Z,23.48
2023-05-22T16:45:51.372Z,23.49
2023-05-22T16:48:18.318Z,23.55
2023-05-22T16:50:46.531Z,23.46
2023-05-22T16:53:16.669Z,23.52
2023-05-22T16:55:43.376Z,23.55
2023-05-22T16:58:11.625Z,23.62
2023-05-22T17:00:39.980Z,23.67
2023-05-22T17:03:08.427Z,23.66
2023-05-22T17:05:36.100Z,23.63
2023-05-22T17:08:03.064Z,23.59
2023-05-22T17:10:29.616Z,23.47
2023-05-22T17:12:56.052Z,23.42
2023-05-22T17:15:22.666Z,23.40
2023-05-22T17:17:49.146Z,23.33
2023-05-22T17:20:16.627Z,23.28
2023-05-22T17:22:43.138Z,23.22
2023-05-22T17:25:09.976Z,23.07
2023-05-22T17:27:36.983Z,23.09
2023-05-22T17:30:04.852Z,23.09
2023-05-22T17:32:31.492Z,23.12
2023-05-22T17:34:58.219Z,23.09
2023-05-22T17:37:24.647Z,23.07
2023-05-22T17:39:51.684Z,23.04
2023-05-22T17:42:18.129Z,23.02
2023-05-22T17:44:44.710Z,23.03
2023-05-22T17:47:11.104Z,22.99
2023-05-22T17:49:37.625Z,22.96
2023-05-22T17:52:04.253Z,22.91
2023-05-22T17:54:36.680Z,22.85
2023-05-22T17:57:04.168Z,22.82
2023-05-22T17:59:32.386Z,22.80
2023-05-22T18:01:58.988Z,22.82
2023-05-22T18:04:25.450Z,22.85
2023-05-22T18:06:52.201Z,22.84
2023-05-22T18:09:18.622Z,22.93
2023-05-22T18:11:45.145Z,22.87
2023-05-22T18:14:11.566Z,22.83
2023-05-22T18:16:38.062Z,22.77
2023-05-22T18:19:04.685Z,22.73
2023-05-22T18:21:32.078Z,22.67
2023-05-22T18:23:58.594Z,22.60
2023-05-22T18:26:25.048Z,22.58
2023-05-22T18:28:51.469Z,22.54
2023-05-22T18:31:17.955Z,22.54
2023-05-22T18:33:45.112Z,22.48
2023-05-22T18:36:13.015Z,22.38
2023-05-22T18:38:39.411Z,22.33
2023-05-22T18:41:06.480Z,22.29
2023-05-22T18:43:33.199Z,22.25
2023-05-22T18:45:59.770Z,22.18
2023-05-22T18:48:27.303Z,22.16
2023-05-22T18:50:57.377Z,22.10
2023-05-22T18:53:25.125Z,22.05
2023-05-22T18:55:52.243Z,22.05
2023-05-22T18:58:18.688Z,21.99
2023-05-22T19:00:45.609Z,21.93
2023-05-22T19:03:12.330Z,21.89
2023-05-22T19:05:38.783Z,21.81
2023-05-22T19:08:05.797Z,21.76
2023-05-22T19:10:32.954Z,21.69
2023-05-22T19:12:59.422Z,21.62
2023-05-22T19:15:26.013Z,21.57
2023-05-22T19:17:52.533Z,21.54
2023-05-22T19:20:19.049Z,21.50
2023-05-22T19:22:45.673Z,21.42
2023-05-22T19:25:12.087Z,21.39
2023-05-22T19:27:39.484Z,21.34
2023-05-22T19:30:07.147Z,21.30
2023-05-22T19:32:33.637Z,21.25
2023-05-22T19:35:00.178Z,21.24
2023-05-22T19:37:26.603Z,21.17
2023-05-22T19:39:54.158Z,21.07
2023-05-22T19:42:20.607Z,21.02
2023-05-22T19:44:47.202Z,21.05
2023-05-22T19:47:13.777Z,20.98
2023-05-22T19:49:40.642Z,20.93
2023-05-22T19:52:07.167Z,20.94
2023-05-22T19:54:35.118Z,21.02
2023-05-22T19:57:02.969Z,21.03
2023-05-22T19:59:29.401Z,21.03
2023-05-22T20:01:56.220Z,20.96
2023-05-22T20:04:23.062Z,20.90
2023-05-22T20:06:49.502Z,20.90
2023-05-22T20:09:16.271Z,20.87
2023-05-22T20:11:42.670Z,20.92
2023-05-22T20:14:09.177Z,20.89
2023-05-22T20:16:35.886Z,20.88
2023-05-22T20:19:03.837Z,20.84
2023-05-22T20:21:30.990Z,20.81
2023-05-22T20:23:57.663Z,20.85
2023-05-22T20:26:24.301Z,20.85
2023-05-22T20:28:50.964Z,20.80
2023-05-22T20:31:19.366Z,20.76
2023-05-22T20:33:45.839Z,20.70
2023-05-22T20:36:14.995Z,20.69
2023-05-22T20:38:42.547Z,20.69
2023-05-22T20:41:09.961Z,20.64
2023-05-22T20:43:36.718Z,20.65
2023-05-22T20:46:03.199Z,20.65
2023-05-22T20:48:29.681Z,20.63
2023-05-22T20:50:56.125Z,20.62
2023-05-22T20:53:22.553Z,20.57
2023-05-22T20:55:48.957Z,20.50
2023-05-22T20:58:16.598Z,20.37
2023-05-22T21:00:43.082Z,20.32
2023-05-22T21:03:09.587Z,20.30
2023-05-22T21:05:36.730Z,20.24
2023-05-22T21:08:03.174Z,20.24
2023-05-22T21:10:29.544Z,20.19
2023-05-22T21:12:56.035Z,20.13
2023-05-22T21:15:22.419Z,20.08
2023-05-22T21:17:48.964Z,20.06
2023-05-22T21:20:15.616Z,20.07
2023-05-22T21:22:42.205Z,20.00
2023-05-22T21:25:09.314Z,19.92
2023-05-22T21:27:35.941Z,19.89
2023-05-22T21:30:02.393Z,19.81
2023-05-22T21:32:28.894Z,19.81
2023-05-22T21:34:55.444Z,19.78
2023-05-22T21:37:21.875Z,19.75
2023-05-22T21:39:48.330Z,19.71
2023-05-22T21:42:16.227Z,19.72
2023-05-22T21:44:42.708Z,19.68
2023-05-22T21:47:09.586Z,19.65
2023-05-22T21:49:38.741Z,19.59
2023-05-22T21:52:05.868Z,19.51
2023-05-22T21:54:32.350Z,19.50
2023-05-22T21:56:58.842Z,19.48
2023-05-22T21:59:25.292Z,19.41
2023-05-22T22:01:51.880Z,19.35
2023-05-22T22:04:18.348Z,19.30
2023-05-22T22:06:44.876Z,19.27
2023-05-22T22:09:11.267Z,19.28
2023-05-22T22:11:37.651Z,19.22
2023-05-22T22:14:04.392Z,19.19
2023-05-22T22:16:35.664Z,19.19
2023-05-22T22:19:03.207Z,19.17
2023-05-22T22:21:29.874Z,19.17
2023-05-22T22:23:56.409Z,19.16
2023-05-22T22:26:22.842Z,19.16
2023-05-22T22:28:49.193Z,19.14
2023-05-22T22:31:15.733Z,19.10
2023-05-22T22:33:42.111Z,19.04
2023-05-22T22:36:08.831Z,19.03
2023-05-22T22:38:35.518Z,19.05
2023-05-22T22:41:02.034Z,19.03
2023-05-22T22:43:29.065Z,18.99
2023-05-22T22:45:55.949Z,18.96
2023-05-22T22:48:22.652Z,18.91
2023-05-22T22:50:49.403Z,18.87
2023-05-22T22:53:16.000Z,18.80
2023-05-22T22:55:42.654Z,18.76
2023-05-22T22:58:09.512Z,18.71
2023-05-22T23:00:36.681Z,18.64
2023-05-22T23:03:03.231Z,18.64
2023-05-22T23:05:29.753Z,18.61
2023-05-22T23:07:58.310Z,18.56
2023-05-22T23:10:24.724Z,18.54
2023-05-22T23:12:51.137Z,18.46
2023-05-22T23:15:17.880Z,18.42
2023-05-22T23:17:44.388Z,18.36
2023-05-22T23:20:11.080Z,18.33
2023-05-22T23:22:37.522Z,18.36
2023-05-22T23:25:04.166Z,18.32
2023-05-22T23:27:30.761Z,18.32
2023-05-22T23:29:58.220Z,18.26
2023-05-22T23:32:24.703Z,18.29
2023-05-22T23:34:51.125Z,18.23
2023-05-22T23:37:17.621Z,18.18
2023-05-22T23:39:44.048Z,18.18
2023-05-22T23:42:10.892Z,18.17
2023-05-22T23:44:37.724Z,18.17
2023-05-22T23:47:04.416Z,18.19
2023-05-22T23:49:30.936Z,18.14
2023-05-22T23:51:57.436Z,18.04
2023-05-22T23:58:04.454Z,17.96
